sensor_id;sensor_type;location;lat;lon;timestamp;P1;durP1;ratioP1;P2;durP2;ratioP2
20984;SDS011;10651;47.552;7.606;2023-05-19T06:24:41;15.75;;;5.72;;
20984;SDS011;10651;47.552;7.606;2023-05-19T06:31:27;12.23;;;6.10;;
20984;SDS011;10651;47.552;7.606;2023-05-19T06:34:18;15.00;;;6.32;;
20984;SDS011;10651;47.552;7.606;2023-05-19T06:44:21;15.13;;;6.65;;
20984;SDS011;10651;47.552;7.606;2023-05-19T06:47:03;15.70;;;6.97;;
20984;SDS011;10651;47.552;7.606;2023-05-19T06:50:03;17.02;;;6.38;;
20984;SDS011;10651;47.552;7.606;2023-05-19T06:59:15;14.43;;;6.07;;
20984;SDS011;10651;47.552;7.606;2023-05-19T07:01:54;11.55;;;5.82;;
20984;SDS011;10651;47.552;7.606;2023-05-19T07:11:46;12.23;;;6.55;;
20984;SDS011;10651;47.552;7.606;2023-05-19T07:14:57;14.65;;;6.63;;
20984;SDS011;10651;47.552;7.606;2023-05-19T07:21:51;9.10;;;5.95;;
20984;SDS011;10651;47.552;7.606;2023-05-19T08:17:10;9.70;;;5.95;;
20984;SDS011;10651;47.552;7.606;2023-05-19T08:20:27;12.13;;;5.65;;
20984;SDS011;10651;47.552;7.606;2023-05-19T08:26:48;11.75;;;5.72;;
20984;SDS011;10651;47.552;7.606;2023-05-19T08:30:03;9.45;;;4.82;;
20984;SDS011;10651;47.552;7.606;2023-05-19T08:33:01;11.95;;;5.22;;
20984;SDS011;10651;47.552;7.606;2023-05-19T08:43:03;8.82;;;5.40;;
20984;SDS011;10651;47.552;7.606;2023-05-19T09:02:25;13.40;;;6.38;;
20984;SDS011;10651;47.552;7.606;2023-05-19T09:06:08;10.15;;;4.68;;
20984;SDS011;10651;47.552;7.606;2023-05-19T09:09:38;7.13;;;4.43;;
20984;SDS011;10651;47.552;7.606;2023-05-19T09:12:33;15.50;;;5.18;;
20984;SDS011;10651;47.552;7.606;2023-05-19T09:15:18;9.40;;;4.90;;
20984;SDS011;10651;47.552;7.606;2023-05-19T09:18:28;11.13;;;4.72;;
20984;SDS011;10651;47.552;7.606;2023-05-19T09:27:56;11.73;;;5.10;;
20984;SDS011;10651;47.552;7.606;2023-05-19T09:30:38;8.65;;;4.57;;
20984;SDS011;10651;47.552;7.606;2023-05-19T09:46:53;9.05;;;4.05;;
20984;SDS011;10651;47.552;7.606;2023-05-19T09:56:10;12.45;;;4.85;;
20984;SDS011;10651;47.552;7.606;2023-05-19T10:02:43;10.38;;;4.38;;
20984;SDS011;10651;47.552;7.606;2023-05-19T10:05:46;8.70;;;4.97;;
20984;SDS011;10651;47.552;7.606;2023-05-19T10:15:49;7.82;;;4.10;;
20984;SDS011;10651;47.552;7.606;2023-05-19T10:18:44;11.30;;;4.05;;
20984;SDS011;10651;47.552;7.606;2023-05-19T10:21:23;14.25;;;4.32;;
20984;SDS011;10651;47.552;7.606;2023-05-19T10:24:07;8.68;;;3.60;;
20984;SDS011;10651;47.552;7.606;2023-05-19T10:26:36;6.82;;;4.03;;
20984;SDS011;10651;47.552;7.606;2023-05-19T10:29:07;9.18;;;4.68;;
20984;SDS011;10651;47.552;7.606;2023-05-19T10:31:55;13.05;;;3.95;;
20984;SDS011;10651;47.552;7.606;2023-05-19T10:40:36;7.82;;;4.00;;
20984;SDS011;10651;47.552;7.606;2023-05-19T10:46:11;10.38;;;4.10;;
20984;SDS011;10651;47.552;7.606;2023-05-19T10:48:37;12.32;;;4.80;;
20984;SDS011;10651;47.552;7.606;2023-05-19T10:51:17;7.78;;;3.85;;
20984;SDS011;10651;47.552;7.606;2023-05-19T10:53:55;6.65;;;3.60;;
20984;SDS011;10651;47.552;7.606;2023-05-19T10:56:26;18.20;;;3.58;;
20984;SDS011;10651;47.552;7.606;2023-05-19T10:59:04;11.75;;;4.10;;
20984;SDS011;10651;47.552;7.606;2023-05-19T11:01:53;6.53;;;3.67;;
20984;SDS011;10651;47.552;7.606;2023-05-19T11:04:37;7.38;;;3.75;;
20984;SDS011;10651;47.552;7.606;2023-05-19T11:07:14;6.82;;;4.22;;
20984;SDS011;10651;47.552;7.606;2023-05-19T11:09:57;9.45;;;3.65;;
20984;SDS011;10651;47.552;7.606;2023-05-19T11:12:25;6.43;;;3.40;;
20984;SDS011;10651;47.552;7.606;2023-05-19T11:15:03;10.68;;;4.00;;
20984;SDS011;10651;47.552;7.606;2023-05-19T11:17:31;7.75;;;3.50;;
20984;SDS011;10651;47.552;7.606;2023-05-19T11:20:01;6.05;;;3.30;;
20984;SDS011;10651;47.552;7.606;2023-05-19T11:22:32;6.90;;;3.80;;
20984;SDS011;10651;47.552;7.606;2023-05-19T11:25:00;9.07;;;3.88;;
20984;SDS011;10651;47.552;7.606;2023-05-19T11:27:29;6.05;;;4.22;;
20984;SDS011;10651;47.552;7.606;2023-05-19T11:30:00;8.55;;;4.15;;
20984;SDS011;10651;47.552;7.606;2023-05-19T11:32:35;7.55;;;3.75;;
20984;SDS011;10651;47.552;7.606;2023-05-19T11:35:06;11.32;;;4.57;;
20984;SDS011;10651;47.552;7.606;2023-05-19T11:37:34;7.25;;;3.38;;
20984;SDS011;10651;47.552;7.606;2023-05-19T11:40:19;12.23;;;4.32;;
20984;SDS011;10651;47.552;7.606;2023-05-19T11:43:09;7.47;;;3.85;;
20984;SDS011;10651;47.552;7.606;2023-05-19T11:49:09;8.77;;;4.30;;
20984;SDS011;10651;47.552;7.606;2023-05-19T11:51:39;9.05;;;4.15;;
20984;SDS011;10651;47.552;7.606;2023-05-19T11:54:20;7.88;;;4.07;;
20984;SDS011;10651;47.552;7.606;2023-05-19T12:03:07;6.97;;;3.90;;
20984;SDS011;10651;47.552;7.606;2023-05-19T12:05:35;11.45;;;3.70;;
20984;SDS011;10651;47.552;7.606;2023-05-19T12:08:03;10.25;;;3.72;;
20984;SDS011;10651;47.552;7.606;2023-05-19T12:10:29;10.80;;;4.25;;
20984;SDS011;10651;47.552;7.606;2023-05-19T12:12:58;6.55;;;3.78;;
20984;SDS011;10651;47.552;7.606;2023-05-19T12:15:24;6.45;;;4.00;;
20984;SDS011;10651;47.552;7.606;2023-05-19T12:17:57;7.43;;;3.70;;
20984;SDS011;10651;47.552;7.606;2023-05-19T12:20:24;7.85;;;4.43;;
20984;SDS011;10651;47.552;7.606;2023-05-19T12:22:56;11.40;;;4.70;;
20984;SDS011;10651;47.552;7.606;2023-05-19T12:25:24;8.38;;;4.20;;
20984;SDS011;10651;47.552;7.606;2023-05-19T12:27:55;7.43;;;3.80;;
20984;SDS011;10651;47.552;7.606;2023-05-19T12:30:27;5.63;;;3.55;;
20984;SDS011;10651;47.552;7.606;2023-05-19T12:33:04;7.15;;;3.78;;
20984;SDS011;10651;47.552;7.606;2023-05-19T12:35:35;7.75;;;3.72;;
20984;SDS011;10651;47.552;7.606;2023-05-19T12:38:29;9.48;;;3.60;;
20984;SDS011;10651;47.552;7.606;2023-05-19T12:41:25;10.65;;;3.90;;
20984;SDS011;10651;47.552;7.606;2023-05-19T12:44:29;8.27;;;4.53;;
20984;SDS011;10651;47.552;7.606;2023-05-19T12:47:06;7.40;;;3.80;;
20984;SDS011;10651;47.552;7.606;2023-05-19T12:49:52;5.95;;;4.13;;
20984;SDS011;10651;47.552;7.606;2023-05-19T12:53:07;7.75;;;3.97;;
20984;SDS011;10651;47.552;7.606;2023-05-19T13:02:21;8.60;;;4.25;;
20984;SDS011;10651;47.552;7.606;2023-05-19T13:08:30;7.40;;;4.43;;
20984;SDS011;10651;47.552;7.606;2023-05-19T13:11:54;4.85;;;3.45;;
20984;SDS011;10651;47.552;7.606;2023-05-19T13:15:22;9.18;;;4.25;;
20984;SDS011;10651;47.552;7.606;2023-05-19T13:24:24;8.50;;;3.85;;
20984;SDS011;10651;47.552;7.606;2023-05-19T13:27:46;8.07;;;4.20;;
20984;SDS011;10651;47.552;7.606;2023-05-19T13:30:58;8.07;;;3.70;;
20984;SDS011;10651;47.552;7.606;2023-05-19T13:41:06;10.20;;;4.32;;
20984;SDS011;10651;47.552;7.606;2023-05-19T13:47:46;10.52;;;3.92;;
20984;SDS011;10651;47.552;7.606;2023-05-19T14:11:23;10.75;;;4.60;;
20984;SDS011;10651;47.552;7.606;2023-05-19T14:14:22;9.27;;;3.65;;
20984;SDS011;10651;47.552;7.606;2023-05-19T14:20:26;6.03;;;3.58;;
20984;SDS011;10651;47.552;7.606;2023-05-19T14:22:55;5.82;;;3.85;;
20984;SDS011;10651;47.552;7.606;2023-05-19T14:25:34;8.82;;;3.45;;
20984;SDS011;10651;47.552;7.606;2023-05-19T14:28:18;9.07;;;3.60;;
20984;SDS011;10651;47.552;7.606;2023-05-19T14:30:47;8.27;;;3.90;;
20984;SDS011;10651;47.552;7.606;2023-05-19T14:33:21;6.78;;;3.47;;
20984;SDS011;10651;47.552;7.606;2023-05-19T14:35:52;5.28;;;3.60;;
20984;SDS011;10651;47.552;7.606;2023-05-19T14:38:30;6.72;;;4.18;;
20984;SDS011;10651;47.552;7.606;2023-05-19T14:41:24;7.78;;;3.83;;
20984;SDS011;10651;47.552;7.606;2023-05-19T14:53:28;8.93;;;3.60;;
20984;SDS011;10651;47.552;7.606;2023-05-19T14:56:03;10.52;;;4.25;;
20984;SDS011;10651;47.552;7.606;2023-05-19T15:16:32;7.45;;;3.75;;
20984;SDS011;10651;47.552;7.606;2023-05-19T15:33:28;6.82;;;3.55;;
20984;SDS011;10651;47.552;7.606;2023-05-19T15:42:45;4.05;;;3.30;;
20984;SDS011;10651;47.552;7.606;2023-05-19T15:45:40;5.50;;;3.53;;
20984;SDS011;10651;47.552;7.606;2023-05-19T15:51:54;7.40;;;4.10;;
20984;SDS011;10651;47.552;7.606;2023-05-19T15:55:26;9.13;;;4.22;;
20984;SDS011;10651;47.552;7.606;2023-05-19T16:09:06;8.77;;;3.92;;
20984;SDS011;10651;47.552;7.606;2023-05-19T16:15:45;7.95;;;3.67;;
20984;SDS011;10651;47.552;7.606;2023-05-19T16:29:13;6.75;;;4.43;;
20984;SDS011;10651;47.552;7.606;2023-05-19T16:35:36;5.40;;;3.58;;
20984;SDS011;10651;47.552;7.606;2023-05-19T16:45:08;10.35;;;4.93;;
20984;SDS011;10651;47.552;7.606;2023-05-19T16:47:56;8.00;;;3.97;;
20984;SDS011;10651;47.552;7.606;2023-05-19T16:50:28;7.25;;;3.95;;
20984;SDS011;10651;47.552;7.606;2023-05-19T16:53:28;6.13;;;3.90;;
20984;SDS011;10651;47.552;7.606;2023-05-19T17:03:02;5.80;;;4.07;;
20984;SDS011;10651;47.552;7.606;2023-05-19T17:13:11;12.27;;;4.55;;
20984;SDS011;10651;47.552;7.606;2023-05-19T17:16:27;9.00;;;4.85;;
20984;SDS011;10651;47.552;7.606;2023-05-19T17:19:19;10.50;;;5.15;;
20984;SDS011;10651;47.552;7.606;2023-05-19T17:21:48;10.05;;;4.18;;
20984;SDS011;10651;47.552;7.606;2023-05-19T17:27:21;8.40;;;4.20;;
20984;SDS011;10651;47.552;7.606;2023-05-19T17:30:28;12.57;;;5.28;;
20984;SDS011;10651;47.552;7.606;2023-05-19T17:36:43;11.52;;;5.35;;
20984;SDS011;10651;47.552;7.606;2023-05-19T17:39:42;13.68;;;4.60;;
20984;SDS011;10651;47.552;7.606;2023-05-19T17:45:27;17.27;;;4.80;;
20984;SDS011;10651;47.552;7.606;2023-05-19T17:48:13;7.05;;;5.00;;
20984;SDS011;10651;47.552;7.606;2023-05-19T17:50:47;7.45;;;4.80;;
20984;SDS011;10651;47.552;7.606;2023-05-19T17:53:40;9.40;;;5.30;;
20984;SDS011;10651;47.552;7.606;2023-05-19T17:59:50;13.35;;;5.40;;
20984;SDS011;10651;47.552;7.606;2023-05-19T18:06:31;9.23;;;4.97;;
20984;SDS011;10651;47.552;7.606;2023-05-19T18:12:40;9.27;;;5.10;;
20984;SDS011;10651;47.552;7.606;2023-05-19T18:15:41;8.15;;;4.80;;
20984;SDS011;10651;47.552;7.606;2023-05-19T18:31:18;8.93;;;5.45;;
20984;SDS011;10651;47.552;7.606;2023-05-19T18:33:44;6.55;;;4.97;;
20984;SDS011;10651;47.552;7.606;2023-05-19T18:36:11;7.50;;;5.45;;
20984;SDS011;10651;47.552;7.606;2023-05-19T18:38:40;12.65;;;5.93;;
20984;SDS011;10651;47.552;7.606;2023-05-19T18:41:09;13.45;;;5.18;;
20984;SDS011;10651;47.552;7.606;2023-05-19T18:43:37;8.35;;;5.25;;
20984;SDS011;10651;47.552;7.606;2023-05-19T18:46:03;7.32;;;4.68;;
20984;SDS011;10651;47.552;7.606;2023-05-19T18:48:32;7.55;;;5.95;;
20984;SDS011;10651;47.552;7.606;2023-05-19T18:51:01;11.73;;;6.15;;
20984;SDS011;10651;47.552;7.606;2023-05-19T18:53:34;10.43;;;6.05;;
20984;SDS011;10651;47.552;7.606;2023-05-19T18:56:04;10.55;;;5.90;;
20984;SDS011;10651;47.552;7.606;2023-05-19T18:58:30;7.22;;;5.35;;
20984;SDS011;10651;47.552;7.606;2023-05-19T19:01:06;8.23;;;5.95;;
20984;SDS011;10651;47.552;7.606;2023-05-19T19:03:35;15.27;;;6.03;;
20984;SDS011;10651;47.552;7.606;2023-05-19T19:06:00;7.95;;;5.35;;
20984;SDS011;10651;47.552;7.606;2023-05-19T19:08:26;7.72;;;4.90;;
20984;SDS011;10651;47.552;7.606;2023-05-19T19:14:03;7.68;;;5.97;;
20984;SDS011;10651;47.552;7.606;2023-05-19T19:17:20;8.90;;;5.43;;
20984;SDS011;10651;47.552;7.606;2023-05-19T19:20:30;7.50;;;5.15;;
20984;SDS011;10651;47.552;7.606;2023-05-19T19:23:37;8.95;;;5.05;;
20984;SDS011;10651;47.552;7.606;2023-05-19T19:26:10;11.32;;;5.75;;
20984;SDS011;10651;47.552;7.606;2023-05-19T19:28:39;8.73;;;5.83;;
20984;SDS011;10651;47.552;7.606;2023-05-19T19:38:22;6.13;;;4.72;;
20984;SDS011;10651;47.552;7.606;2023-05-19T19:41:32;9.23;;;5.00;;
20984;SDS011;10651;47.552;7.606;2023-05-19T19:44:13;6.80;;;5.00;;
20984;SDS011;10651;47.552;7.606;2023-05-19T19:47:12;10.93;;;5.05;;
20984;SDS011;10651;47.552;7.606;2023-05-19T19:56:31;9.93;;;5.25;;
20984;SDS011;10651;47.552;7.606;2023-05-19T19:59:10;7.50;;;4.45;;
20984;SDS011;10651;47.552;7.606;2023-05-19T20:05:47;7.68;;;5.20;;
20984;SDS011;10651;47.552;7.606;2023-05-19T20:09:00;7.25;;;5.35;;
20984;SDS011;10651;47.552;7.606;2023-05-19T20:12:05;7.60;;;5.25;;
20984;SDS011;10651;47.552;7.606;2023-05-19T20:18:52;11.40;;;5.03;;
20984;SDS011;10651;47.552;7.606;2023-05-19T20:22:05;12.10;;;5.38;;
20984;SDS011;10651;47.552;7.606;2023-05-19T20:25:06;7.35;;;5.05;;
20984;SDS011;10651;47.552;7.606;2023-05-19T20:27:39;9.80;;;5.57;;
20984;SDS011;10651;47.552;7.606;2023-05-19T20:30:10;7.72;;;5.25;;
20984;SDS011;10651;47.552;7.606;2023-05-19T20:32:53;7.70;;;5.60;;
20984;SDS011;10651;47.552;7.606;2023-05-19T20:35:30;11.80;;;6.10;;
20984;SDS011;10651;47.552;7.606;2023-05-19T20:37:56;12.60;;;5.75;;
20984;SDS011;10651;47.552;7.606;2023-05-19T20:44:18;7.28;;;5.63;;
20984;SDS011;10651;47.552;7.606;2023-05-19T20:46:56;7.20;;;5.57;;
20984;SDS011;10651;47.552;7.606;2023-05-19T20:49:39;15.45;;;5.80;;
20984;SDS011;10651;47.552;7.606;2023-05-19T20:55:35;10.10;;;5.80;;
20984;SDS011;10651;47.552;7.606;2023-05-19T20:58:23;8.65;;;5.65;;
20984;SDS011;10651;47.552;7.606;2023-05-19T21:07:12;7.47;;;5.57;;
20984;SDS011;10651;47.552;7.606;2023-05-19T21:09:46;7.82;;;5.65;;
20984;SDS011;10651;47.552;7.606;2023-05-19T21:12:22;11.63;;;5.35;;
20984;SDS011;10651;47.552;7.606;2023-05-19T21:14:58;10.45;;;5.13;;
20984;SDS011;10651;47.552;7.606;2023-05-19T21:17:40;7.05;;;5.18;;
20984;SDS011;10651;47.552;7.606;2023-05-19T21:20:19;7.00;;;5.10;;
20984;SDS011;10651;47.552;7.606;2023-05-19T21:22:48;8.05;;;5.60;;
20984;SDS011;10651;47.552;7.606;2023-05-19T21:28:45;7.05;;;5.30;;
20984;SDS011;10651;47.552;7.606;2023-05-19T21:31:19;8.45;;;5.18;;
20984;SDS011;10651;47.552;7.606;2023-05-19T21:34:05;7.30;;;4.80;;
20984;SDS011;10651;47.552;7.606;2023-05-19T21:36:43;6.88;;;5.50;;
20984;SDS011;10651;47.552;7.606;2023-05-19T21:39:29;7.88;;;5.55;;
20984;SDS011;10651;47.552;7.606;2023-05-19T21:42:09;6.82;;;5.38;;
20984;SDS011;10651;47.552;7.606;2023-05-19T21:44:41;12.65;;;5.43;;
20984;SDS011;10651;47.552;7.606;2023-05-19T21:50:45;8.60;;;5.35;;
20984;SDS011;10651;47.552;7.606;2023-05-19T21:53:22;6.72;;;5.55;;
20984;SDS011;10651;47.552;7.606;2023-05-19T21:55:51;9.98;;;5.68;;
